sensor_id;sensor_type;location;lat;lon;timestamp;temperature;humidity
55135;DHT22;41031;44.750;11.308;2023-02-03T00:02:03;5.60;75.00
55135;DHT22;41031;44.750;11.308;2023-02-03T00:04:30;5.50;75.10
55135;DHT22;41031;44.750;11.308;2023-02-03T00:06:57;5.50;75.30
55135;DHT22;41031;44.750;11.308;2023-02-03T00:09:24;5.50;75.50
55135;DHT22;41031;44.750;11.308;2023-02-03T00:11:52;5.40;75.60
55135;DHT22;41031;44.750;11.308;2023-02-03T00:14:19;5.40;75.70
55135;DHT22;41031;44.750;11.308;2023-02-03T00:16:46;5.40;75.70
55135;DHT22;41031;44.750;11.308;2023-02-03T00:19:13;5.30;75.90
55135;DHT22;41031;44.750;11.308;2023-02-03T00:21:43;5.30;76.10
55135;DHT22;41031;44.750;11.308;2023-02-03T00:24:10;5.30;76.10
55135;DHT22;41031;44.750;11.308;2023-02-03T00:26:42;5.20;75.60
55135;DHT22;41031;44.750;11.308;2023-02-03T00:29:09;5.20;75.70
55135;DHT22;41031;44.750;11.308;2023-02-03T00:31:36;5.10;76.00
55135;DHT22;41031;44.750;11.308;2023-02-03T00:34:04;5.10;76.20
55135;DHT22;41031;44.750;11.308;2023-02-03T00:36:32;5.10;76.30
55135;DHT22;41031;44.750;11.308;2023-02-03T00:38:59;5.10;76.30
55135;DHT22;41031;44.750;11.308;2023-02-03T00:41:28;5.00;75.90
55135;DHT22;41031;44.750;11.308;2023-02-03T00:43:56;5.10;76.20
55135;DHT22;41031;44.750;11.308;2023-02-03T00:46:23;5.10;76.40
55135;DHT22;41031;44.750;11.308;2023-02-03T00:48:50;5.10;76.50
55135;DHT22;41031;44.750;11.308;2023-02-03T00:51:17;5.10;76.50
55135;DHT22;41031;44.750;11.308;2023-02-03T00:53:44;5.10;76.30
55135;DHT22;41031;44.750;11.308;2023-02-03T00:56:11;5.10;76.00
55135;DHT22;41031;44.750;11.308;2023-02-03T00:58:39;5.10;76.30
55135;DHT22;41031;44.750;11.308;2023-02-03T01:01:06;5.10;76.30
55135;DHT22;41031;44.750;11.308;2023-02-03T01:03:34;5.00;76.50
55135;DHT22;41031;44.750;11.308;2023-02-03T01:06:27;5.00;76.50
55135;DHT22;41031;44.750;11.308;2023-02-03T01:08:54;5.00;76.70
55135;DHT22;41031;44.750;11.308;2023-02-03T01:11:24;5.00;76.70
55135;DHT22;41031;44.750;11.308;2023-02-03T01:13:55;5.00;76.80
55135;DHT22;41031;44.750;11.308;2023-02-03T01:16:23;5.00;76.70
55135;DHT22;41031;44.750;11.308;2023-02-03T01:18:54;4.90;76.50
55135;DHT22;41031;44.750;11.308;2023-02-03T01:21:23;4.90;76.70
55135;DHT22;41031;44.750;11.308;2023-02-03T01:23:50;4.90;76.80
55135;DHT22;41031;44.750;11.308;2023-02-03T01:26:20;4.90;76.70
55135;DHT22;41031;44.750;11.308;2023-02-03T01:28:55;5.00;76.80
55135;DHT22;41031;44.750;11.308;2023-02-03T01:31:28;5.00;76.80
55135;DHT22;41031;44.750;11.308;2023-02-03T01:33:56;5.00;76.70
55135;DHT22;41031;44.750;11.308;2023-02-03T01:36:24;4.90;76.00
55135;DHT22;41031;44.750;11.308;2023-02-03T01:38:52;4.80;75.30
55135;DHT22;41031;44.750;11.308;2023-02-03T01:41:29;4.60;75.60
55135;DHT22;41031;44.750;11.308;2023-02-03T01:43:58;4.50;76.10
55135;DHT22;41031;44.750;11.308;2023-02-03T01:46:36;4.30;77.00
55135;DHT22;41031;44.750;11.308;2023-02-03T01:49:15;4.30;77.60
55135;DHT22;41031;44.750;11.308;2023-02-03T01:51:45;4.30;78.40
55135;DHT22;41031;44.750;11.308;2023-02-03T01:54:24;4.40;78.20
55135;DHT22;41031;44.750;11.308;2023-02-03T01:56:58;4.40;78.20
55135;DHT22;41031;44.750;11.308;2023-02-03T01:59:28;4.40;78.20
55135;DHT22;41031;44.750;11.308;2023-02-03T02:01:56;4.40;78.40
55135;DHT22;41031;44.750;11.308;2023-02-03T02:04:28;4.40;79.00
55135;DHT22;41031;44.750;11.308;2023-02-03T02:07:00;4.40;79.10
55135;DHT22;41031;44.750;11.308;2023-02-03T02:09:28;4.50;79.10
55135;DHT22;41031;44.750;11.308;2023-02-03T02:11:55;4.50;78.90
55135;DHT22;41031;44.750;11.308;2023-02-03T02:14:22;4.50;78.70
55135;DHT22;41031;44.750;11.308;2023-02-03T02:17:00;4.40;78.30
55135;DHT22;41031;44.750;11.308;2023-02-03T02:28:46;4.10;78.60
55135;DHT22;41031;44.750;11.308;2023-02-03T02:31:10;4.10;78.90
55135;DHT22;41031;44.750;11.308;2023-02-03T02:34:00;4.00;79.20
55135;DHT22;41031;44.750;11.308;2023-02-03T02:36:47;4.00;79.40
55135;DHT22;41031;44.750;11.308;2023-02-03T02:42:14;3.90;78.80
55135;DHT22;41031;44.750;11.308;2023-02-03T02:44:55;3.90;79.20
55135;DHT22;41031;44.750;11.308;2023-02-03T02:47:24;3.90;79.60
55135;DHT22;41031;44.750;11.308;2023-02-03T02:50:17;3.90;79.60
55135;DHT22;41031;44.750;11.308;2023-02-03T02:52:48;3.80;79.80
55135;DHT22;41031;44.750;11.308;2023-02-03T02:55:23;3.80;79.60
55135;DHT22;41031;44.750;11.308;2023-02-03T02:58:01;3.80;79.60
55135;DHT22;41031;44.750;11.308;2023-02-03T03:00:30;3.70;79.60
55135;DHT22;41031;44.750;11.308;2023-02-03T03:05:44;3.60;79.80
55135;DHT22;41031;44.750;11.308;2023-02-03T03:08:15;3.60;80.10
55135;DHT22;41031;44.750;11.308;2023-02-03T03:10:45;3.60;80.10
55135;DHT22;41031;44.750;11.308;2023-02-03T03:13:24;3.50;79.90
55135;DHT22;41031;44.750;11.308;2023-02-03T03:15:55;3.50;80.30
55135;DHT22;41031;44.750;11.308;2023-02-03T03:18:33;3.40;80.60
55135;DHT22;41031;44.750;11.308;2023-02-03T03:21:04;3.40;80.30
55135;DHT22;41031;44.750;11.308;2023-02-03T03:23:37;3.30;79.80
55135;DHT22;41031;44.750;11.308;2023-02-03T03:26:13;3.30;80.30
55135;DHT22;41031;44.750;11.308;2023-02-03T03:28:50;3.20;80.70
55135;DHT22;41031;44.750;11.308;2023-02-03T03:31:19;3.30;81.20
55135;DHT22;41031;44.750;11.308;2023-02-03T03:33:47;3.20;81.20
55135;DHT22;41031;44.750;11.308;2023-02-03T03:36:35;3.20;81.20
55135;DHT22;41031;44.750;11.308;2023-02-03T03:39:14;3.20;81.10
55135;DHT22;41031;44.750;11.308;2023-02-03T03:44:29;3.10;81.10
55135;DHT22;41031;44.750;11.308;2023-02-03T03:47:13;3.10;81.40
55135;DHT22;41031;44.750;11.308;2023-02-03T03:49:44;3.10;81.60
55135;DHT22;41031;44.750;11.308;2023-02-03T03:52:17;3.00;81.60
55135;DHT22;41031;44.750;11.308;2023-02-03T03:54:47;3.00;81.60
55135;DHT22;41031;44.750;11.308;2023-02-03T03:57:21;3.00;81.60
55135;DHT22;41031;44.750;11.308;2023-02-03T03:59:49;3.00;81.70
55135;DHT22;41031;44.750;11.308;2023-02-03T04:02:18;2.90;81.50
55135;DHT22;41031;44.750;11.308;2023-02-03T04:04:47;2.90;81.40
55135;DHT22;41031;44.750;11.308;2023-02-03T04:07:15;2.80;81.40
55135;DHT22;41031;44.750;11.308;2023-02-03T04:09:42;2.70;81.50
55135;DHT22;41031;44.750;11.308;2023-02-03T04:12:21;2.70;81.90
55135;DHT22;41031;44.750;11.308;2023-02-03T04:14:50;2.60;82.80
55135;DHT22;41031;44.750;11.308;2023-02-03T04:17:17;2.50;83.20
55135;DHT22;41031;44.750;11.308;2023-02-03T04:19:47;2.40;83.40
55135;DHT22;41031;44.750;11.308;2023-02-03T04:22:14;2.20;83.60
55135;DHT22;41031;44.750;11.308;2023-02-03T04:24:41;2.00;83.80
55135;DHT22;41031;44.750;11.308;2023-02-03T04:27:08;1.90;84.20
55135;DHT22;41031;44.750;11.308;2023-02-03T04:29:35;1.80;84.60
55135;DHT22;41031;44.750;11.308;2023-02-03T04:32:02;1.70;84.80
55135;DHT22;41031;44.750;11.308;2023-02-03T04:34:29;1.60;85.30
55135;DHT22;41031;44.750;11.308;2023-02-03T04:36:56;1.60;86.30
55135;DHT22;41031;44.750;11.308;2023-02-03T04:39:23;1.50;85.70
55135;DHT22;41031;44.750;11.308;2023-02-03T04:41:50;1.50;86.20
55135;DHT22;41031;44.750;11.308;2023-02-03T04:44:17;1.40;86.30
55135;DHT22;41031;44.750;11.308;2023-02-03T04:46:44;1.40;86.80
55135;DHT22;41031;44.750;11.308;2023-02-03T04:49:11;1.40;87.30
55135;DHT22;41031;44.750;11.308;2023-02-03T04:51:38;1.50;87.60
55135;DHT22;41031;44.750;11.308;2023-02-03T04:54:05;1.40;87.50
55135;DHT22;41031;44.750;11.308;2023-02-03T04:56:32;1.50;87.60
55135;DHT22;41031;44.750;11.308;2023-02-03T04:58:59;1.40;87.30
55135;DHT22;41031;44.750;11.308;2023-02-03T05:01:26;1.40;87.50
55135;DHT22;41031;44.750;11.308;2023-02-03T05:03:53;1.40;87.80
55135;DHT22;41031;44.750;11.308;2023-02-03T05:06:24;1.40;88.20
55135;DHT22;41031;44.750;11.308;2023-02-03T05:08:52;1.40;88.20
55135;DHT22;41031;44.750;11.308;2023-02-03T05:11:20;1.40;88.10
55135;DHT22;41031;44.750;11.308;2023-02-03T05:13:47;1.40;88.40
55135;DHT22;41031;44.750;11.308;2023-02-03T05:16:14;1.40;88.70
55135;DHT22;41031;44.750;11.308;2023-02-03T05:18:41;1.40;88.90
55135;DHT22;41031;44.750;11.308;2023-02-03T05:21:08;1.50;89.20
55135;DHT22;41031;44.750;11.308;2023-02-03T05:23:35;1.50;89.60
55135;DHT22;41031;44.750;11.308;2023-02-03T05:26:03;1.60;90.00
55135;DHT22;41031;44.750;11.308;2023-02-03T05:28:30;1.70;90.10
55135;DHT22;41031;44.750;11.308;2023-02-03T05:30:58;1.70;90.00
55135;DHT22;41031;44.750;11.308;2023-02-03T05:33:25;1.70;90.00
55135;DHT22;41031;44.750;11.308;2023-02-03T05:35:52;1.70;90.10
55135;DHT22;41031;44.750;11.308;2023-02-03T05:38:19;1.70;90.30
55135;DHT22;41031;44.750;11.308;2023-02-03T05:40:47;1.70;90.50
55135;DHT22;41031;44.750;11.308;2023-02-03T05:43:33;1.70;90.70
55135;DHT22;41031;44.750;11.308;2023-02-03T05:46:01;1.80;90.90
55135;DHT22;41031;44.750;11.308;2023-02-03T05:48:29;1.80;91.20
55135;DHT22;41031;44.750;11.308;2023-02-03T05:50:56;1.80;91.50
55135;DHT22;41031;44.750;11.308;2023-02-03T05:53:24;1.90;91.70
55135;DHT22;41031;44.750;11.308;2023-02-03T05:55:52;1.90;91.90
55135;DHT22;41031;44.750;11.308;2023-02-03T05:58:19;2.00;92.20
55135;DHT22;41031;44.750;11.308;2023-02-03T06:00:46;2.00;92.30
55135;DHT22;41031;44.750;11.308;2023-02-03T06:03:13;2.10;92.50
55135;DHT22;41031;44.750;11.308;2023-02-03T06:05:40;2.10;92.70
55135;DHT22;41031;44.750;11.308;2023-02-03T06:08:07;2.20;92.80
55135;DHT22;41031;44.750;11.308;2023-02-03T06:10:35;2.30;92.80
55135;DHT22;41031;44.750;11.308;2023-02-03T06:13:09;2.20;93.00
55135;DHT22;41031;44.750;11.308;2023-02-03T06:15:37;2.30;93.20
55135;DHT22;41031;44.750;11.308;2023-02-03T06:18:04;2.30;93.40
55135;DHT22;41031;44.750;11.308;2023-02-03T06:20:31;2.40;93.60
55135;DHT22;41031;44.750;11.308;2023-02-03T06:22:59;2.50;93.80
55135;DHT22;41031;44.750;11.308;2023-02-03T06:25:26;2.50;94.00
55135;DHT22;41031;44.750;11.308;2023-02-03T06:27:53;2.60;94.10
55135;DHT22;41031;44.750;11.308;2023-02-03T06:30:20;2.70;94.20
55135;DHT22;41031;44.750;11.308;2023-02-03T06:32:49;2.70;94.30
55135;DHT22;41031;44.750;11.308;2023-02-03T06:35:17;2.80;94.40
55135;DHT22;41031;44.750;11.308;2023-02-03T06:37:44;2.80;94.40
55135;DHT22;41031;44.750;11.308;2023-02-03T06:40:11;2.90;94.50
55135;DHT22;41031;44.750;11.308;2023-02-03T06:42:39;2.90;94.50
55135;DHT22;41031;44.750;11.308;2023-02-03T06:45:06;2.90;94.60
55135;DHT22;41031;44.750;11.308;2023-02-03T06:47:34;3.00;94.60
55135;DHT22;41031;44.750;11.308;2023-02-03T06:50:01;3.00;94.60
55135;DHT22;41031;44.750;11.308;2023-02-03T06:52:28;3.00;94.60
55135;DHT22;41031;44.750;11.308;2023-02-03T06:54:55;3.00;94.60
55135;DHT22;41031;44.750;11.308;2023-02-03T06:57:22;3.00;94.70
55135;DHT22;41031;44.750;11.308;2023-02-03T06:59:49;3.10;94.80
55135;DHT22;41031;44.750;11.308;2023-02-03T07:02:16;3.10;94.90
55135;DHT22;41031;44.750;11.308;2023-02-03T07:04:43;3.20;95.00
55135;DHT22;41031;44.750;11.308;2023-02-03T07:07:11;3.20;95.00
55135;DHT22;41031;44.750;11.308;2023-02-03T07:09:39;3.20;95.10
55135;DHT22;41031;44.750;11.308;2023-02-03T07:12:07;3.30;95.10
55135;DHT22;41031;44.750;11.308;2023-02-03T07:14:35;3.30;95.20
55135;DHT22;41031;44.750;11.308;2023-02-03T07:17:02;3.40;95.40
55135;DHT22;41031;44.750;11.308;2023-02-03T07:19:29;3.50;95.90
55135;DHT22;41031;44.750;11.308;2023-02-03T07:21:56;3.50;95.90
55135;DHT22;41031;44.750;11.308;2023-02-03T07:24:23;3.40;96.00
55135;DHT22;41031;44.750;11.308;2023-02-03T07:26:50;3.40;96.10
55135;DHT22;41031;44.750;11.308;2023-02-03T07:29:18;3.40;96.40
55135;DHT22;41031;44.750;11.308;2023-02-03T07:31:45;3.50;96.50
55135;DHT22;41031;44.750;11.308;2023-02-03T07:34:12;3.50;96.60
55135;DHT22;41031;44.750;11.308;2023-02-03T07:36:39;3.50;96.80
55135;DHT22;41031;44.750;11.308;2023-02-03T07:39:07;3.60;96.80
55135;DHT22;41031;44.750;11.308;2023-02-03T07:41:34;3.60;97.00
55135;DHT22;41031;44.750;11.308;2023-02-03T07:44:01;3.60;97.30
55135;DHT22;41031;44.750;11.308;2023-02-03T07:46:28;3.70;97.60
55135;DHT22;41031;44.750;11.308;2023-02-03T07:48:55;3.70;97.70
55135;DHT22;41031;44.750;11.308;2023-02-03T07:51:22;3.70;97.90
55135;DHT22;41031;44.750;11.308;2023-02-03T07:53:49;3.80;98.00
55135;DHT22;41031;44.750;11.308;2023-02-03T07:56:16;3.90;98.10
55135;DHT22;41031;44.750;11.308;2023-02-03T07:58:43;3.90;98.30
55135;DHT22;41031;44.750;11.308;2023-02-03T08:01:15;3.90;98.50
55135;DHT22;41031;44.750;11.308;2023-02-03T08:03:42;3.90;98.60
55135;DHT22;41031;44.750;11.308;2023-02-03T08:06:09;3.90;98.60
55135;DHT22;41031;44.750;11.308;2023-02-03T08:08:36;4.00;98.70
55135;DHT22;41031;44.750;11.308;2023-02-03T08:11:03;4.10;98.70
55135;DHT22;41031;44.750;11.308;2023-02-03T08:13:30;4.10;98.60
55135;DHT22;41031;44.750;11.308;2023-02-03T08:15:57;4.20;98.60
55135;DHT22;41031;44.750;11.308;2023-02-03T08:18:24;4.30;98.60
55135;DHT22;41031;44.750;11.308;2023-02-03T08:20:51;4.40;98.60
55135;DHT22;41031;44.750;11.308;2023-02-03T08:23:18;4.50;98.60
55135;DHT22;41031;44.750;11.308;2023-02-03T08:25:52;4.60;98.50
55135;DHT22;41031;44.750;11.308;2023-02-03T08:28:19;4.70;98.50
55135;DHT22;41031;44.750;11.308;2023-02-03T08:30:46;4.70;98.70
55135;DHT22;41031;44.750;11.308;2023-02-03T08:33:13;4.70;98.70
55135;DHT22;41031;44.750;11.308;2023-02-03T08:35:45;4.70;98.70
55135;DHT22;41031;44.750;11.308;2023-02-03T08:38:12;4.80;98.70
55135;DHT22;41031;44.750;11.308;2023-02-03T08:40:39;4.80;98.70
55135;DHT22;41031;44.750;11.308;2023-02-03T08:43:06;4.90;98.70
55135;DHT22;41031;44.750;11.308;2023-02-03T08:45:33;5.00;98.70
55135;DHT22;41031;44.750;11.308;2023-02-03T08:48:00;5.10;98.70
55135;DHT22;41031;44.750;11.308;2023-02-03T08:50:27;5.20;98.70
55135;DHT22;41031;44.750;11.308;2023-02-03T08:52:55;5.20;98.60
55135;DHT22;41031;44.750;11.308;2023-02-03T08:55:22;5.30;98.50
55135;DHT22;41031;44.750;11.308;2023-02-03T08:57:50;5.40;98.40
55135;DHT22;41031;44.750;11.308;2023-02-03T09:00:17;5.50;98.30
55135;DHT22;41031;44.750;11.308;2023-02-03T09:02:44;5.50;98.30
55135;DHT22;41031;44.750;11.308;2023-02-03T09:05:11;5.60;98.20
55135;DHT22;41031;44.750;11.308;2023-02-03T09:07:38;5.60;98.10
55135;DHT22;41031;44.750;11.308;2023-02-03T09:10:06;5.70;98.00
55135;DHT22;41031;44.750;11.308;2023-02-03T09:12:33;5.70;98.00
55135;DHT22;41031;44.750;11.308;2023-02-03T09:15:00;5.70;97.80
55135;DHT22;41031;44.750;11.308;2023-02-03T09:17:27;5.70;97.70
55135;DHT22;41031;44.750;11.308;2023-02-03T09:19:53;5.70;97.60
55135;DHT22;41031;44.750;11.308;2023-02-03T09:22:21;5.70;97.50
55135;DHT22;41031;44.750;11.308;2023-02-03T09:24:48;5.70;97.50
55135;DHT22;41031;44.750;11.308;2023-02-03T09:27:17;5.70;97.40
55135;DHT22;41031;44.750;11.308;2023-02-03T09:29:44;5.70;97.40
55135;DHT22;41031;44.750;11.308;2023-02-03T09:32:11;5.70;97.30
55135;DHT22;41031;44.750;11.308;2023-02-03T09:34:41;5.70;97.30
55135;DHT22;41031;44.750;11.308;2023-02-03T09:37:08;5.70;97.20
55135;DHT22;41031;44.750;11.308;2023-02-03T09:39:35;5.80;97.20
55135;DHT22;41031;44.750;11.308;2023-02-03T09:42:12;5.80;97.20
55135;DHT22;41031;44.750;11.308;2023-02-03T09:45:28;5.80;97.10
55135;DHT22;41031;44.750;11.308;2023-02-03T09:48:11;5.90;97.10
55135;DHT22;41031;44.750;11.308;2023-02-03T09:50:42;5.90;97.10
55135;DHT22;41031;44.750;11.308;2023-02-03T09:55:46;6.00;97.00
55135;DHT22;41031;44.750;11.308;2023-02-03T09:58:14;6.00;96.90
55135;DHT22;41031;44.750;11.308;2023-02-03T10:00:50;6.10;97.00
55135;DHT22;41031;44.750;11.308;2023-02-03T10:03:59;6.20;97.00
55135;DHT22;41031;44.750;11.308;2023-02-03T10:06:35;6.20;96.90
55135;DHT22;41031;44.750;11.308;2023-02-03T10:17:49;6.30;96.40
55135;DHT22;41031;44.750;11.308;2023-02-03T10:23:11;6.30;96.20
55135;DHT22;41031;44.750;11.308;2023-02-03T10:25:49;6.30;96.20
55135;DHT22;41031;44.750;11.308;2023-02-03T10:28:26;6.40;96.30
55135;DHT22;41031;44.750;11.308;2023-02-03T10:30:59;6.40;96.40
55135;DHT22;41031;44.750;11.308;2023-02-03T10:33:29;6.40;96.40
55135;DHT22;41031;44.750;11.308;2023-02-03T10:36:16;6.40;96.40
55135;DHT22;41031;44.750;11.308;2023-02-03T10:39:34;6.50;96.40
55135;DHT22;41031;44.750;11.308;2023-02-03T10:41:40;6.50;96.40
55135;DHT22;41031;44.750;11.308;2023-02-03T10:44:10;6.60;96.40
55135;DHT22;41031;44.750;11.308;2023-02-03T10:46:39;6.70;96.40
55135;DHT22;41031;44.750;11.308;2023-02-03T10:49:10;6.70;96.40
55135;DHT22;41031;44.750;11.308;2023-02-03T10:51:46;6.80;96.40
55135;DHT22;41031;44.750;11.308;2023-02-03T10:54:33;6.90;96.40
55135;DHT22;41031;44.750;11.308;2023-02-03T10:57:11;7.00;96.50
55135;DHT22;41031;44.750;11.308;2023-02-03T10:59:47;7.20;96.50
55135;DHT22;41031;44.750;11.308;2023-02-03T11:02:21;7.30;96.40
55135;DHT22;41031;44.750;11.308;2023-02-03T11:07:43;7.60;96.30
55135;DHT22;41031;44.750;11.308;2023-02-03T11:10:36;7.70;96.10
55135;DHT22;41031;44.750;11.308;2023-02-03T11:13:22;7.80;96.10
55135;DHT22;41031;44.750;11.308;2023-02-03T11:16:21;7.90;96.10
55135;DHT22;41031;44.750;11.308;2023-02-03T11:18:56;8.10;96.10
55135;DHT22;41031;44.750;11.308;2023-02-03T11:29:28;8.80;95.60
55135;DHT22;41031;44.750;11.308;2023-02-03T11:31:59;8.90;95.40
55135;DHT22;41031;44.750;11.308;2023-02-03T11:34:35;9.00;95.30
55135;DHT22;41031;44.750;11.308;2023-02-03T11:43:01;9.10;94.70
55135;DHT22;41031;44.750;11.308;2023-02-03T11:45:32;9.10;94.60
55135;DHT22;41031;44.750;11.308;2023-02-03T11:48:18;9.10;94.60
55135;DHT22;41031;44.750;11.308;2023-02-03T12:07:46;9.10;94.60
55135;DHT22;41031;44.750;11.308;2023-02-03T12:18:51;9.90;93.80
55135;DHT22;41031;44.750;11.308;2023-02-03T12:27:13;10.40;92.90
55135;DHT22;41031;44.750;11.308;2023-02-03T12:29:53;10.50;92.50
55135;DHT22;41031;44.750;11.308;2023-02-03T12:37:48;10.70;91.20
55135;DHT22;41031;44.750;11.308;2023-02-03T12:40:34;10.70;91.10
55135;DHT22;41031;44.750;11.308;2023-02-03T12:49:11;11.00;90.80
55135;DHT22;41031;44.750;11.308;2023-02-03T12:51:53;11.10;90.50
55135;DHT22;41031;44.750;11.308;2023-02-03T12:56:53;11.20;89.90
55135;DHT22;41031;44.750;11.308;2023-02-03T12:59:22;11.30;89.60
55135;DHT22;41031;44.750;11.308;2023-02-03T13:01:55;11.30;89.40
55135;DHT22;41031;44.750;11.308;2023-02-03T13:04:44;11.30;89.10
55135;DHT22;41031;44.750;11.308;2023-02-03T13:07:39;11.40;88.90
55135;DHT22;41031;44.750;11.308;2023-02-03T13:10:27;11.40;88.40
55135;DHT22;41031;44.750;11.308;2023-02-03T13:12:58;11.50;88.10
55135;DHT22;41031;44.750;11.308;2023-02-03T13:15:45;11.50;87.80
55135;DHT22;41031;44.750;11.308;2023-02-03T13:20:52;11.50;86.80
55135;DHT22;41031;44.750;11.308;2023-02-03T13:23:21;11.50;86.70
55135;DHT22;41031;44.750;11.308;2023-02-03T13:42:22;11.50;85.60
55135;DHT22;41031;44.750;11.308;2023-02-03T13:44:55;11.60;85.70
55135;DHT22;41031;44.750;11.308;2023-02-03T13:47:27;11.60;85.50
55135;DHT22;41031;44.750;11.308;2023-02-03T13:49:58;11.60;85.40
55135;DHT22;41031;44.750;11.308;2023-02-03T13:52:28;11.60;85.30
55135;DHT22;41031;44.750;11.308;2023-02-03T13:54:56;11.60;85.20
55135;DHT22;41031;44.750;11.308;2023-02-03T13:57:37;11.60;85.20
55135;DHT22;41031;44.750;11.308;2023-02-03T14:00:56;11.60;85.10
55135;DHT22;41031;44.750;11.308;2023-02-03T14:02:54;11.60;85.10
55135;DHT22;41031;44.750;11.308;2023-02-03T14:05:44;11.60;84.90
55135;DHT22;41031;44.750;11.308;2023-02-03T14:19:09;11.30;84.90
55135;DHT22;41031;44.750;11.308;2023-02-03T14:21:50;11.30;85.20
55135;DHT22;41031;44.750;11.308;2023-02-03T14:24:19;11.20;85.30
55135;DHT22;41031;44.750;11.308;2023-02-03T14:26:52;11.20;85.50
55135;DHT22;41031;44.750;11.308;2023-02-03T14:29:32;11.20;85.60
55135;DHT22;41031;44.750;11.308;2023-02-03T14:32:10;11.10;85.80
55135;DHT22;41031;44.750;11.308;2023-02-03T14:34:40;11.10;85.90
55135;DHT22;41031;44.750;11.308;2023-02-03T14:37:23;11.10;86.10
55135;DHT22;41031;44.750;11.308;2023-02-03T14:42:43;11.20;86.40
55135;DHT22;41031;44.750;11.308;2023-02-03T14:48:25;11.20;86.30
55135;DHT22;41031;44.750;11.308;2023-02-03T14:57:01;11.30;86.30
55135;DHT22;41031;44.750;11.308;2023-02-03T15:02:26;11.30;86.30
55135;DHT22;41031;44.750;11.308;2023-02-03T15:07:49;11.20;86.30
55135;DHT22;41031;44.750;11.308;2023-02-03T15:11:04;11.10;86.30
55135;DHT22;41031;44.750;11.308;2023-02-03T15:13:31;11.10;86.40
55135;DHT22;41031;44.750;11.308;2023-02-03T15:16:01;11.00;86.50
55135;DHT22;41031;44.750;11.308;2023-02-03T15:18:36;11.00;86.60
55135;DHT22;41031;44.750;11.308;2023-02-03T15:21:03;10.90;86.70
55135;DHT22;41031;44.750;11.308;2023-02-03T15:23:38;10.90;86.80
55135;DHT22;41031;44.750;11.308;2023-02-03T15:26:14;10.90;86.90
55135;DHT22;41031;44.750;11.308;2023-02-03T15:28:41;10.90;86.90
55135;DHT22;41031;44.750;11.308;2023-02-03T15:31:13;10.90;87.00
55135;DHT22;41031;44.750;11.308;2023-02-03T15:33:43;10.80;87.00
55135;DHT22;41031;44.750;11.308;2023-02-03T15:36:25;10.80;87.10
55135;DHT22;41031;44.750;11.308;2023-02-03T15:39:01;10.80;87.30
55135;DHT22;41031;44.750;11.308;2023-02-03T15:41:30;10.80;87.40
55135;DHT22;41031;44.750;11.308;2023-02-03T15:44:02;10.70;87.40
55135;DHT22;41031;44.750;11.308;2023-02-03T15:46:35;10.70;87.50
55135;DHT22;41031;44.750;11.308;2023-02-03T15:49:12;10.70;87.70
55135;DHT22;41031;44.750;11.308;2023-02-03T15:51:45;10.60;87.80
55135;DHT22;41031;44.750;11.308;2023-02-03T15:54:20;10.50;87.80
55135;DHT22;41031;44.750;11.308;2023-02-03T15:57:01;10.50;87.90
55135;DHT22;41031;44.750;11.308;2023-02-03T15:59:34;10.40;88.00
55135;DHT22;41031;44.750;11.308;2023-02-03T16:02:18;10.30;88.10
55135;DHT22;41031;44.750;11.308;2023-02-03T16:04:47;10.30;88.40
55135;DHT22;41031;44.750;11.308;2023-02-03T16:07:26;10.20;88.40
55135;DHT22;41031;44.750;11.308;2023-02-03T16:09:56;10.10;88.60
55135;DHT22;41031;44.750;11.308;2023-02-03T16:12:31;10.00;88.80
55135;DHT22;41031;44.750;11.308;2023-02-03T16:15:00;10.00;89.00
55135;DHT22;41031;44.750;11.308;2023-02-03T16:17:30;9.90;89.40
55135;DHT22;41031;44.750;11.308;2023-02-03T16:22:43;9.80;89.90
55135;DHT22;41031;44.750;11.308;2023-02-03T16:31:01;9.60;90.00
55135;DHT22;41031;44.750;11.308;2023-02-03T16:33:49;9.50;90.10
55135;DHT22;41031;44.750;11.308;2023-02-03T16:36:39;9.40;90.20
55135;DHT22;41031;44.750;11.308;2023-02-03T16:39:25;9.20;90.30
55135;DHT22;41031;44.750;11.308;2023-02-03T16:42:17;9.20;90.40
55135;DHT22;41031;44.750;11.308;2023-02-03T16:45:11;9.10;90.50
55135;DHT22;41031;44.750;11.308;2023-02-03T16:47:57;9.10;90.60
55135;DHT22;41031;44.750;11.308;2023-02-03T16:50:43;9.00;90.70
55135;DHT22;41031;44.750;11.308;2023-02-03T16:53:29;8.90;90.80
55135;DHT22;41031;44.750;11.308;2023-02-03T16:55:59;8.80;90.90
55135;DHT22;41031;44.750;11.308;2023-02-03T16:58:26;8.80;91.10
55135;DHT22;41031;44.750;11.308;2023-02-03T17:00:54;8.70;91.20
55135;DHT22;41031;44.750;11.308;2023-02-03T17:03:23;8.60;91.30
55135;DHT22;41031;44.750;11.308;2023-02-03T17:05:51;8.60;91.50
55135;DHT22;41031;44.750;11.308;2023-02-03T17:08:20;8.50;91.60
55135;DHT22;41031;44.750;11.308;2023-02-03T17:10:48;8.50;91.70
55135;DHT22;41031;44.750;11.308;2023-02-03T17:13:17;8.40;91.70
55135;DHT22;41031;44.750;11.308;2023-02-03T17:15:46;8.30;91.70
55135;DHT22;41031;44.750;11.308;2023-02-03T17:18:14;8.30;91.80
55135;DHT22;41031;44.750;11.308;2023-02-03T17:20:43;8.20;91.90
55135;DHT22;41031;44.750;11.308;2023-02-03T17:23:11;8.10;92.00
55135;DHT22;41031;44.750;11.308;2023-02-03T17:25:38;8.10;92.00
55135;DHT22;41031;44.750;11.308;2023-02-03T17:28:07;8.00;92.10
55135;DHT22;41031;44.750;11.308;2023-02-03T17:30:34;7.90;92.10
55135;DHT22;41031;44.750;11.308;2023-02-03T17:33:03;7.90;92.20
55135;DHT22;41031;44.750;11.308;2023-02-03T17:35:44;7.80;92.30
55135;DHT22;41031;44.750;11.308;2023-02-03T17:38:12;7.80;92.50
55135;DHT22;41031;44.750;11.308;2023-02-03T17:40:41;7.70;92.50
55135;DHT22;41031;44.750;11.308;2023-02-03T17:43:27;7.70;92.50
55135;DHT22;41031;44.750;11.308;2023-02-03T17:46:18;7.60;92.60
55135;DHT22;41031;44.750;11.308;2023-02-03T17:49:03;7.60;92.70
55135;DHT22;41031;44.750;11.308;2023-02-03T17:51:47;7.60;92.80
55135;DHT22;41031;44.750;11.308;2023-02-03T17:54:31;7.50;92.90
55135;DHT22;41031;44.750;11.308;2023-02-03T17:56:58;7.60;93.00
55135;DHT22;41031;44.750;11.308;2023-02-03T17:59:25;7.60;93.10
55135;DHT22;41031;44.750;11.308;2023-02-03T18:01:52;7.60;93.10
55135;DHT22;41031;44.750;11.308;2023-02-03T18:04:20;7.60;93.20
55135;DHT22;41031;44.750;11.308;2023-02-03T18:06:46;7.70;93.20
55135;DHT22;41031;44.750;11.308;2023-02-03T18:09:13;7.60;93.20
55135;DHT22;41031;44.750;11.308;2023-02-03T18:11:42;7.60;93.20
55135;DHT22;41031;44.750;11.308;2023-02-03T18:14:12;7.60;93.10
55135;DHT22;41031;44.750;11.308;2023-02-03T18:16:40;7.60;93.10
55135;DHT22;41031;44.750;11.308;2023-02-03T18:19:10;7.60;93.00
55135;DHT22;41031;44.750;11.308;2023-02-03T18:21:39;7.60;93.10
55135;DHT22;41031;44.750;11.308;2023-02-03T18:24:06;7.60;93.00
55135;DHT22;41031;44.750;11.308;2023-02-03T18:26:35;7.60;93.00